Time;durP1;ratioP1;P1;durP2;ratioP2;P2;SDS_P1;SDS_P2;PMS_P1;PMS_P2;Temp;Humidity;BMP_temperature;BMP_pressure;BME280_temperature;BME280_humidity;BME280_pressure;Samples;Min_cycle;Max_cycle;Signal;HPM_P1;HPM_P2
2023/07/04 00:01:17;;;;;;;6.30;1.95;;;15.40;99.90;;;;;;5000559;28;20029;-90
2023/07/04 00:03:45;;;;;;;5.47;1.83;;;15.30;99.90;;;;;;5000756;28;20030;-92
2023/07/04 00:06:13;;;;;;;8.55;2.47;;;15.30;99.90;;;;;;5000583;28;20033;-93
2023/07/04 00:08:39;;;;;;;8.68;2.17;;;15.30;99.90;;;;;;5000368;28;20026;-91
2023/07/04 00:11:07;;;;;;;8.20;2.35;;;15.30;99.90;;;;;;5000098;28;20109;-91
2023/07/04 00:13:34;;;;;;;10.32;2.40;;;15.20;99.90;;;;;;4984092;28;20504;-91
2023/07/04 00:16:00;;;;;;;8.75;2.45;;;15.20;99.90;;;;;;5000174;28;20033;-91
2023/07/04 00:18:27;;;;;;;6.30;1.80;;;15.20;99.90;;;;;;4984105;28;20033;-93
2023/07/04 00:20:58;;;;;;;34.67;2.90;;;15.20;99.90;;;;;;5000594;28;20390;-92
2023/07/04 00:23:29;;;;;;;;;;;15.20;99.90;;;;;;5000676;28;20487;-93
2023/07/04 00:25:55;;;;;;;9.05;2.50;;;15.20;99.90;;;;;;5000912;28;19912;-93
2023/07/04 00:28:24;;;;;;;9.63;2.65;;;15.20;99.90;;;;;;5000395;28;20026;-93
2023/07/04 00:30:52;;;;;;;6.70;1.88;;;15.10;99.90;;;;;;5000448;28;20472;-93
2023/07/04 00:33:18;;;;;;;9.80;2.47;;;15.10;99.90;;;;;;5000017;28;20114;-93
2023/07/04 00:35:45;;;;;;;5.72;2.15;;;15.10;99.90;;;;;;4983917;28;20046;-93
2023/07/04 00:38:12;;;;;;;5.38;1.90;;;15.10;99.90;;;;;;4984576;28;20042;-94
2023/07/04 00:40:38;;;;;;;8.82;2.33;;;15.10;99.90;;;;;;4967995;28;20030;-94
2023/07/04 00:43:05;;;;;;;10.32;2.55;;;15.10;99.90;;;;;;4983696;28;20053;-90
2023/07/04 00:45:35;;;;;;;6.25;2.40;;;15.00;99.90;;;;;;4999711;28;20026;-90
2023/07/04 00:48:03;;;;;;;10.70;2.30;;;15.00;99.90;;;;;;4983714;28;20538;-90
2023/07/04 00:50:32;;;;;;;8.32;2.33;;;15.00;99.90;;;;;;4983224;28;20022;-90
2023/07/04 00:53:04;;;;;;;7.63;1.98;;;15.00;99.90;;;;;;4999544;28;20041;-92
2023/07/04 00:55:33;;;;;;;8.40;2.35;;;15.00;99.90;;;;;;4999370;28;20057;-92
2023/07/04 00:58:04;;;;;;;6.82;2.25;;;15.00;99.90;;;;;;4999877;28;20045;-92
2023/07/04 01:00:31;;;;;;;7.72;2.30;;;15.00;99.90;;;;;;4968257;28;20049;-92
2023/07/04 01:03:10;;;;;;;9.15;2.35;;;15.00;99.90;;;;;;4967155;28;20084;-93
2023/07/04 01:05:51;;;;;;;8.50;2.15;;;15.00;99.90;;;;;;4999326;28;20021;-91
2023/07/04 01:08:27;;;;;;;11.07;2.50;;;15.00;99.90;;;;;;4999138;28;20026;-94
2023/07/04 01:10:55;;;;;;;12.02;2.90;;;14.90;99.90;;;;;;4999545;28;20072;-93
2023/07/04 01:13:28;;;;;;;11.57;3.53;;;14.90;99.90;;;;;;4999285;28;20522;-91
2023/07/04 01:15:53;;;;;;;13.02;3.17;;;14.90;99.90;;;;;;4983035;28;20041;-92
2023/07/04 01:18:19;;;;;;;12.40;3.30;;;15.00;99.90;;;;;;4983085;28;20065;-91
2023/07/04 01:20:47;;;;;;;9.27;2.50;;;15.00;99.90;;;;;;4966846;28;20033;-92
2023/07/04 01:23:29;;;;;;;12.20;3.35;;;15.00;99.90;;;;;;4998497;28;20033;-89
2023/07/04 01:26:17;;;;;;;13.98;3.00;;;15.10;99.90;;;;;;4999876;28;20032;-92
2023/07/04 01:28:43;;;;;;;10.15;2.78;;;15.10;99.90;;;;;;4999005;28;20022;-92
2023/07/04 01:31:10;;;;;;;11.18;2.97;;;15.10;99.90;;;;;;4998757;28;20472;-91
2023/07/04 01:33:40;;;;;;;12.15;3.15;;;15.00;99.90;;;;;;4982660;28;20029;-92
2023/07/04 01:36:09;;;;;;;15.07;3.53;;;15.00;99.90;;;;;;4968108;28;20026;-91
2023/07/04 01:38:35;;;;;;;14.73;3.08;;;15.00;99.90;;;;;;4998662;28;20049;-91
2023/07/04 01:41:01;;;;;;;11.98;3.60;;;15.00;99.90;;;;;;4983385;28;20033;-92
2023/07/04 01:43:27;;;;;;;11.80;3.63;;;15.00;99.90;;;;;;4969707;28;20045;-93
2023/07/04 01:45:53;;;;;;;12.88;4.18;;;15.00;99.90;;;;;;5002870;28;20424;-94
2023/07/04 01:48:18;;;;;;;11.82;3.78;;;15.00;99.90;;;;;;4971762;28;20074;-94
2023/07/04 01:50:44;;;;;;;12.57;3.60;;;15.10;99.90;;;;;;4985479;28;20097;-94
2023/07/04 01:53:10;;;;;;;18.92;4.63;;;15.10;99.90;;;;;;4969930;28;20076;-92
2023/07/04 01:55:35;;;;;;;14.10;4.00;;;15.10;99.90;;;;;;4997535;28;20064;-92
2023/07/04 01:58:20;;;;;;;16.50;4.28;;;15.10;99.90;;;;;;4983519;28;20014;-93
2023/07/04 02:00:46;;;;;;;16.00;3.97;;;15.20;99.90;;;;;;4998556;28;20022;-91
2023/07/04 02:03:11;;;;;;;12.15;3.90;;;15.20;99.90;;;;;;4966361;28;20049;-91
2023/07/04 02:05:38;;;;;;;13.85;4.50;;;15.30;99.90;;;;;;4966593;28;20485;-92
2023/07/04 02:08:04;;;;;;;11.70;3.47;;;15.30;99.90;;;;;;4983030;28;20092;-94
2023/07/04 02:10:29;;;;;;;13.38;3.60;;;15.20;99.90;;;;;;4998987;28;20017;-95
2023/07/04 02:12:55;;;;;;;17.63;4.25;;;15.20;99.90;;;;;;4966642;28;20102;-93
2023/07/04 02:15:22;;;;;;;11.90;3.60;;;15.10;99.90;;;;;;4971719;28;20026;-93
2023/07/04 02:17:48;;;;;;;12.32;3.72;;;15.10;99.90;;;;;;5025292;28;20029;-93
2023/07/04 02:20:16;;;;;;;17.25;4.38;;;15.10;99.90;;;;;;4980997;28;20030;-94
2023/07/04 02:22:43;;;;;;;15.82;3.60;;;15.10;99.90;;;;;;4999051;28;20022;-93
2023/07/04 02:25:09;;;;;;;16.33;4.70;;;15.10;99.90;;;;;;4966637;28;20052;-93
2023/07/04 02:27:35;;;;;;;15.20;3.67;;;15.00;99.90;;;;;;4982263;28;20034;-93
2023/07/04 02:30:02;;;;;;;13.75;3.53;;;15.00;99.90;;;;;;4982511;28;20022;-94
2023/07/04 02:32:28;;;;;;;13.57;4.38;;;15.00;99.90;;;;;;4998542;28;20022;-94
2023/07/04 02:34:54;;;;;;;17.65;4.32;;;15.00;99.90;;;;;;4982173;28;20052;-94
2023/07/04 02:37:19;;;;;;;11.10;3.45;;;14.90;99.90;;;;;;4982330;28;20026;-94
2023/07/04 02:39:45;;;;;;;16.08;4.35;;;14.90;99.90;;;;;;4998562;28;20111;-93
2023/07/04 02:42:12;;;;;;;12.85;3.60;;;14.80;99.90;;;;;;4981518;28;20097;-94
2023/07/04 02:44:37;;;;;;;13.90;3.92;;;14.80;99.90;;;;;;4966216;28;20508;-93
2023/07/04 02:47:05;;;;;;;13.50;3.22;;;14.80;99.90;;;;;;4982475;28;20048;-95
2023/07/04 02:49:30;;;;;;;13.77;3.50;;;14.80;99.90;;;;;;4984048;28;20030;-91
2023/07/04 02:51:56;;;;;;;15.27;3.83;;;14.80;99.90;;;;;;4981457;28;20537;-90
2023/07/04 02:54:22;;;;;;;12.30;3.72;;;14.70;99.90;;;;;;4964920;28;20081;-91
2023/07/04 02:56:47;;;;;;;14.02;3.45;;;14.70;99.90;;;;;;4981436;28;20069;-91
2023/07/04 02:59:13;;;;;;;15.25;3.33;;;14.70;99.90;;;;;;4981306;28;20041;-90
2023/07/04 03:01:39;;;;;;;14.27;3.83;;;14.70;99.90;;;;;;4964882;28;20037;-90
2023/07/04 03:04:04;;;;;;;11.88;3.58;;;14.70;99.90;;;;;;4980985;28;20026;-90
2023/07/04 03:06:30;;;;;;;11.10;3.33;;;14.70;99.90;;;;;;4965200;28;20034;-90
2023/07/04 03:08:56;;;;;;;14.73;3.95;;;14.70;99.90;;;;;;4965431;28;20014;-90
2023/07/04 03:11:22;;;;;;;15.98;3.83;;;14.70;99.90;;;;;;4983775;28;20049;-90
2023/07/04 03:13:50;;;;;;;9.70;3.45;;;14.70;99.90;;;;;;4986332;28;20106;-90
2023/07/04 03:16:16;;;;;;;9.07;3.30;;;14.70;99.90;;;;;;5000458;28;20084;-91
2023/07/04 03:18:41;;;;;;;13.93;3.25;;;14.70;99.90;;;;;;4999372;28;20461;-90
2023/07/04 03:21:07;;;;;;;10.90;3.28;;;14.70;99.90;;;;;;4984512;28;20042;-92
2023/07/04 03:23:32;;;;;;;10.40;3.28;;;14.60;99.90;;;;;;4983800;28;20389;-95
2023/07/04 03:25:58;;;;;;;13.68;3.20;;;14.60;99.90;;;;;;4986245;28;20018;-95
2023/07/04 03:28:24;;;;;;;13.48;3.58;;;14.60;99.90;;;;;;4987630;28;20527;-94
2023/07/04 03:30:50;;;;;;;8.55;2.88;;;14.70;99.90;;;;;;4986158;28;20034;-94
2023/07/04 03:33:16;;;;;;;11.20;2.90;;;14.70;99.90;;;;;;4985613;28;20037;-91
2023/07/04 03:35:42;;;;;;;11.02;3.30;;;14.70;99.90;;;;;;5000699;28;20034;-89
2023/07/04 03:38:07;;;;;;;9.50;3.17;;;14.60;99.90;;;;;;5000522;28;20032;-95
2023/07/04 03:40:33;;;;;;;12.65;2.90;;;14.60;99.90;;;;;;4987223;28;20125;-94
2023/07/04 03:42:59;;;;;;;10.20;3.50;;;14.60;99.90;;;;;;4987643;28;20030;-94
2023/07/04 03:45:24;;;;;;;12.02;3.40;;;14.60;99.90;;;;;;4987385;28;20026;-94
2023/07/04 03:47:50;;;;;;;12.70;3.38;;;14.60;99.90;;;;;;5003490;28;20476;-95
2023/07/04 03:50:16;;;;;;;10.55;3.05;;;14.60;99.90;;;;;;4971201;28;20030;-95
2023/07/04 03:52:42;;;;;;;8.00;3.00;;;14.70;99.90;;;;;;5002679;28;20018;-96
2023/07/04 03:55:08;;;;;;;8.70;3.38;;;14.70;99.90;;;;;;5002372;28;20053;-91
2023/07/04 03:57:34;;;;;;;11.20;3.25;;;14.60;99.90;;;;;;5001203;28;20080;-91
2023/07/04 04:00:00;;;;;;;10.57;3.53;;;14.70;99.90;;;;;;5001319;28;20025;-90
2023/07/04 04:02:26;;;;;;;9.20;3.08;;;14.70;99.90;;;;;;4985442;28;20056;-92
2023/07/04 04:04:51;;;;;;;12.90;3.47;;;14.70;99.90;;;;;;4969452;28;20072;-92
2023/07/04 04:07:17;;;;;;;13.52;3.60;;;14.70;99.90;;;;;;4986233;28;20530;-91
2023/07/04 04:09:43;;;;;;;15.60;3.78;;;14.70;99.90;;;;;;4977668;28;20041;-92
2023/07/04 04:12:09;;;;;;;12.35;3.60;;;14.70;99.90;;;;;;4991644;28;20392;-94
2023/07/04 04:14:36;;;;;;;10.02;3.45;;;14.70;99.90;;;;;;5013097;28;20567;-94
2023/07/04 04:17:03;;;;;;;10.55;3.80;;;14.70;99.90;;;;;;5000513;28;20041;-95
2023/07/04 04:19:29;;;;;;;12.60;4.15;;;14.70;99.90;;;;;;5003433;28;20030;-94
2023/07/04 04:21:55;;;;;;;11.75;4.15;;;14.70;99.90;;;;;;4987994;28;20076;-93
2023/07/04 04:24:22;;;;;;;17.50;4.80;;;14.80;99.90;;;;;;4985704;28;20033;-92
2023/07/04 04:26:48;;;;;;;16.05;4.53;;;14.80;99.90;;;;;;4967371;28;20030;-92
2023/07/04 04:29:19;;;;;;;17.90;4.97;;;14.70;99.90;;;;;;4983652;28;20030;-93
2023/07/04 04:31:45;;;;;;;15.57;6.05;;;14.70;99.90;;;;;;4999795;28;20014;-93
2023/07/04 04:34:11;;;;;;;15.90;5.18;;;14.80;99.90;;;;;;4999181;28;20113;-93
2023/07/04 04:36:37;;;;;;;20.35;5.80;;;14.70;99.90;;;;;;4967252;28;20073;-91
2023/07/04 04:39:04;;;;;;;22.02;6.53;;;14.80;99.90;;;;;;4999547;28;20381;-92
2023/07/04 04:41:30;;;;;;;17.73;5.90;;;14.80;99.90;;;;;;4983279;28;20124;-92
2023/07/04 04:43:57;;;;;;;17.70;6.10;;;14.80;99.90;;;;;;4999203;28;20104;-91
2023/07/04 04:46:23;;;;;;;17.13;5.30;;;14.80;99.90;;;;;;5000541;28;20169;-96
2023/07/04 04:48:50;;;;;;;20.08;6.18;;;14.80;99.90;;;;;;4984535;28;20065;-95
2023/07/04 04:51:17;;;;;;;28.50;7.05;;;14.80;99.90;;;;;;4967676;28;20469;-92
2023/07/04 04:53:48;;;;;;;22.05;6.65;;;14.80;99.90;;;;;;4982935;28;20095;-92
2023/07/04 04:56:14;;;;;;;19.42;6.93;;;14.80;99.90;;;;;;4983477;28;20111;-91
2023/07/04 04:58:43;;;;;;;22.45;7.03;;;14.80;99.90;;;;;;4982922;28;20094;-91
2023/07/04 05:01:19;;;;;;;30.27;7.50;;;14.80;99.90;;;;;;4999044;28;20455;-92
2023/07/04 05:03:45;;;;;;;22.42;7.40;;;14.80;99.90;;;;;;4999108;28;20037;-91
2023/07/04 05:06:12;;;;;;;28.35;8.18;;;14.80;99.90;;;;;;4982680;28;20097;-91
2023/07/04 05:08:38;;;;;;;27.42;8.07;;;14.80;99.90;;;;;;4982715;28;20034;-90
2023/07/04 05:11:06;;;;;;;22.27;8.40;;;14.90;99.90;;;;;;4982421;28;20049;-91
2023/07/04 05:13:39;;;;;;;23.33;7.78;;;14.90;99.90;;;;;;4998709;28;20018;-91
2023/07/04 05:16:08;;;;;;;19.75;7.63;;;14.90;99.90;;;;;;4967132;28;20037;-90
2023/07/04 05:18:35;;;;;;;25.38;7.93;;;14.90;99.90;;;;;;4998743;28;20696;-94
2023/07/04 05:21:03;;;;;;;19.60;7.13;;;15.00;99.90;;;;;;4991880;28;20061;-94
2023/07/04 05:23:29;;;;;;;28.10;7.85;;;15.00;99.90;;;;;;4998870;28;20018;-95
2023/07/04 05:26:13;;;;;;;28.58;8.38;;;15.00;99.90;;;;;;4966997;28;20029;-94
2023/07/04 05:28:39;;;;;;;26.40;8.68;;;15.00;99.90;;;;;;4999014;28;20022;-95
2023/07/04 05:31:09;;;;;;;22.23;8.40;;;15.00;99.90;;;;;;4982814;28;20036;-94
2023/07/04 05:33:35;;;;;;;31.15;9.70;;;15.00;99.90;;;;;;4998735;28;20037;-95
2023/07/04 05:36:06;;;;;;;27.85;9.45;;;15.00;99.90;;;;;;4982884;28;20034;-94
2023/07/04 05:38:32;;;;;;;26.25;9.20;;;15.00;99.90;;;;;;4998851;28;20420;-94
2023/07/04 05:40:58;;;;;;;26.98;8.82;;;15.00;99.90;;;;;;4982253;28;20034;-95
2023/07/04 05:43:24;;;;;;;22.25;8.25;;;15.10;99.90;;;;;;4982052;28;20026;-95
2023/07/04 05:45:51;;;;;;;28.73;9.15;;;15.00;99.90;;;;;;4997903;28;20112;-94
2023/07/04 05:48:18;;;;;;;30.45;10.18;;;15.10;99.90;;;;;;4981786;28;20033;-94
2023/07/04 05:50:58;;;;;;;32.58;8.90;;;15.10;99.90;;;;;;4965950;28;20066;-94
2023/07/04 05:53:29;;;;;;;30.67;9.80;;;15.20;99.90;;;;;;4998300;28;20036;-94
2023/07/04 05:56:07;;;;;;;39.70;9.80;;;15.20;99.90;;;;;;4998322;28;20072;-93
2023/07/04 05:58:34;;;;;;;35.38;9.52;;;15.20;99.90;;;;;;4998902;28;20472;-95
2023/07/04 06:01:11;;;;;;;28.88;9.35;;;15.30;99.90;;;;;;4982982;28;20060;-94
2023/07/04 06:03:37;;;;;;;28.88;9.35;;;15.30;99.90;;;;;;4999187;28;20029;-93
2023/07/04 06:06:14;;;;;;;28.77;8.45;;;15.30;99.90;;;;;;4983849;28;20026;-95
2023/07/04 06:08:41;;;;;;;31.23;9.55;;;15.30;99.90;;;;;;4999169;28;20110;-90
2023/07/04 06:11:07;;;;;;;33.80;9.43;;;15.30;99.90;;;;;;4973801;28;20089;-89
2023/07/04 06:13:33;;;;;;;25.77;8.88;;;15.40;99.90;;;;;;4979223;28;20096;-90
2023/07/04 06:16:01;;;;;;;28.77;9.95;;;15.40;99.90;;;;;;4995324;28;20384;-89
2023/07/04 06:18:26;;;;;;;26.60;8.68;;;15.40;99.90;;;;;;4993071;28;20041;-91
2023/07/04 06:20:52;;;;;;;31.35;9.20;;;15.40;99.90;;;;;;4967212;28;20026;-90
2023/07/04 06:23:21;;;;;;;29.98;9.80;;;15.50;99.90;;;;;;4981587;28;20034;-90
2023/07/04 06:25:55;;;;;;;31.60;9.68;;;15.50;99.90;;;;;;4981524;28;20038;-90
2023/07/04 06:28:20;;;;;;;33.53;9.73;;;15.60;99.90;;;;;;4998257;28;20115;-93
2023/07/04 06:30:46;;;;;;;29.45;8.85;;;15.60;99.90;;;;;;4967749;28;20029;-93
2023/07/04 06:33:12;;;;;;;34.47;9.98;;;15.70;99.90;;;;;;4969691;28;20026;-93
2023/07/04 06:35:41;;;;;;;30.13;9.20;;;15.70;99.90;;;;;;4969235;28;20040;-93
2023/07/04 06:38:07;;;;;;;29.67;8.90;;;15.80;99.90;;;;;;5001405;28;20022;-94
2023/07/04 06:40:32;;;;;;;35.08;11.10;;;15.80;99.90;;;;;;4985064;28;20030;-94
2023/07/04 06:42:58;;;;;;;27.70;9.00;;;15.90;99.90;;;;;;4976532;28;20369;-91
2023/07/04 06:45:24;;;;;;;28.60;9.70;;;15.90;99.90;;;;;;4969668;28;20026;-92
2023/07/04 06:47:49;;;;;;;42.80;10.10;;;16.00;99.90;;;;;;4981754;28;20041;-93
2023/07/04 06:50:15;;;;;;;33.08;8.98;;;16.10;99.90;;;;;;4965585;28;20116;-92
2023/07/04 06:52:41;;;;;;;28.38;8.18;;;16.10;99.90;;;;;;4982737;28;20076;-92
2023/07/04 06:55:07;;;;;;;25.40;7.70;;;16.10;99.90;;;;;;4962978;28;20046;-93
2023/07/04 06:57:33;;;;;;;26.20;8.35;;;16.20;99.90;;;;;;4948951;28;20030;-92
2023/07/04 06:59:58;;;;;;;28.98;8.13;;;16.20;99.90;;;;;;4966305;28;20030;-93
2023/07/04 07:02:25;;;;;;;27.58;7.97;;;16.20;99.90;;;;;;4982178;28;20386;-94
2023/07/04 07:04:52;;;;;;;25.75;7.05;;;16.30;99.90;;;;;;4950668;28;20018;-93
2023/07/04 07:07:18;;;;;;;24.92;7.07;;;16.30;99.90;;;;;;4982371;28;20066;-94
2023/07/04 07:09:43;;;;;;;23.58;6.72;;;16.30;99.90;;;;;;4950670;28;20022;-93
2023/07/04 07:12:11;;;;;;;22.98;7.15;;;16.30;99.90;;;;;;4983214;28;20425;-95
2023/07/04 07:14:38;;;;;;;26.52;6.70;;;16.40;99.90;;;;;;4983719;28;20018;-95
2023/07/04 07:17:05;;;;;;;24.50;7.18;;;16.40;99.90;;;;;;4951454;28;20085;-93
2023/07/04 07:19:32;;;;;;;29.20;7.80;;;16.40;99.90;;;;;;4983715;28;20056;-94
2023/07/04 07:22:01;;;;;;;18.80;6.35;;;16.40;99.90;;;;;;4982666;28;20192;-92
2023/07/04 07:24:30;;;;;;;20.98;6.32;;;16.50;99.90;;;;;;4966812;28;20030;-90
2023/07/04 07:26:57;;;;;;;25.33;6.70;;;16.50;99.90;;;;;;4966218;28;20026;-92
2023/07/04 07:29:24;;;;;;;20.90;6.20;;;16.60;99.90;;;;;;4965296;28;20022;-93
2023/07/04 07:31:50;;;;;;;27.60;7.00;;;16.70;99.90;;;;;;4981622;28;20019;-93
2023/07/04 07:34:17;;;;;;;25.17;5.45;;;16.70;99.90;;;;;;4965582;28;20026;-92
2023/07/04 07:36:44;;;;;;;21.40;5.75;;;16.70;99.90;;;;;;4981551;28;20026;-93
2023/07/04 07:39:12;;;;;;;28.08;6.55;;;16.80;99.90;;;;;;4998998;28;20113;-93
2023/07/04 07:41:41;;;;;;;25.10;6.47;;;16.70;99.90;;;;;;4981238;28;20066;-93
2023/07/04 07:44:07;;;;;;;25.25;6.00;;;16.80;99.90;;;;;;4981808;28;20022;-93
2023/07/04 07:46:33;;;;;;;22.27;5.30;;;16.80;99.90;;;;;;4949243;28;20114;-93
2023/07/04 07:49:00;;;;;;;21.35;5.20;;;16.80;99.90;;;;;;4965368;28;20105;-94
2023/07/04 07:51:26;;;;;;;23.75;5.30;;;16.80;99.90;;;;;;4949797;28;20034;-92
2023/07/04 07:53:53;;;;;;;17.08;5.10;;;16.90;99.90;;;;;;4965521;28;20035;-94
2023/07/04 07:56:22;;;;;;;18.73;4.45;;;17.00;99.90;;;;;;4983346;28;20559;-94
2023/07/04 07:58:48;;;;;;;16.85;4.60;;;17.00;99.90;;;;;;5001608;28;20030;-93
2023/07/04 08:01:19;;;;;;;22.70;4.75;;;17.00;99.90;;;;;;5001002;28;20057;-94
2023/07/04 08:03:46;;;;;;;18.00;5.22;;;17.00;99.90;;;;;;5000702;28;20026;-92
2023/07/04 08:06:28;;;;;;;19.33;4.40;;;17.00;99.90;;;;;;5000529;28;20503;-92
2023/07/04 08:08:56;;;;;;;22.10;5.22;;;17.00;99.90;;;;;;4999700;28;20022;-91
2023/07/04 08:11:22;;;;;;;16.95;4.78;;;17.10;99.90;;;;;;5000771;28;20053;-92
2023/07/04 08:13:48;;;;;;;18.40;5.07;;;17.10;99.90;;;;;;5000194;28;20026;-92
2023/07/04 08:16:20;;;;;;;17.08;4.50;;;17.20;99.90;;;;;;5000438;28;20030;-92
2023/07/04 08:18:46;;;;;;;22.83;4.78;;;17.30;99.90;;;;;;5000091;28;20022;-92
2023/07/04 08:21:12;;;;;;;15.00;3.92;;;17.40;99.90;;;;;;5000360;28;20045;-93
2023/07/04 08:23:38;;;;;;;15.75;3.75;;;17.40;99.90;;;;;;4984657;28;20084;-94
2023/07/04 08:26:04;;;;;;;17.67;3.90;;;17.40;99.90;;;;;;4968091;28;20036;-93
2023/07/04 08:28:29;;;;;;;15.95;3.80;;;17.40;99.90;;;;;;5000938;28;20424;-93
2023/07/04 08:31:06;;;;;;;18.85;3.88;;;17.50;99.90;;;;;;4984199;28;20026;-95
2023/07/04 08:33:32;;;;;;;15.23;4.03;;;17.50;99.90;;;;;;5001036;28;20389;-94
2023/07/04 08:36:03;;;;;;;16.63;3.80;;;17.50;99.90;;;;;;4968126;28;20030;-93
2023/07/04 08:38:29;;;;;;;15.02;3.55;;;17.50;99.90;;;;;;5002154;28;20473;-94
2023/07/04 08:40:55;;;;;;;11.40;3.28;;;17.50;99.90;;;;;;4985057;28;20076;-95
2023/07/04 08:43:28;;;;;;;14.88;3.80;;;17.50;99.90;;;;;;4984266;28;20054;-95
2023/07/04 08:45:54;;;;;;;13.73;4.05;;;17.50;99.90;;;;;;5003018;28;20030;-94
2023/07/04 08:48:23;;;;;;;17.85;4.53;;;17.50;99.90;;;;;;4980999;28;20025;-94
2023/07/04 08:50:49;;;;;;;15.60;3.47;;;17.50;99.90;;;;;;4997977;28;20018;-94
2023/07/04 08:53:22;;;;;;;13.38;3.67;;;17.50;99.90;;;;;;4998149;28;20041;-95
2023/07/04 08:56:07;;;;;;;27.98;4.72;;;17.60;99.90;;;;;;4989695;28;20065;-95
2023/07/04 08:58:51;;;;;;;13.85;3.90;;;17.60;99.90;;;;;;5000314;28;20034;-95
2023/07/04 09:01:28;;;;;;;13.60;3.60;;;17.60;99.90;;;;;;5000566;28;20117;-94
2023/07/04 09:04:01;;;;;;;14.85;3.45;;;17.60;99.90;;;;;;5000371;28;20057;-94
2023/07/04 09:06:44;;;;;;;13.50;3.10;;;17.70;99.90;;;;;;4999752;28;20461;-93
2023/07/04 09:09:41;;;;;;;11.30;2.83;;;17.80;99.90;;;;;;4999914;28;20052;-93
2023/07/04 09:12:08;;;;;;;10.18;2.92;;;17.90;99.90;;;;;;5001310;28;20049;-91
2023/07/04 09:14:42;;;;;;;12.70;2.85;;;18.00;99.90;;;;;;4984810;28;20137;-88
2023/07/04 09:17:31;;;;;;;12.93;4.13;;;18.10;99.90;;;;;;5000423;28;20026;-90
2023/07/04 09:19:58;;;;;;;11.77;2.90;;;18.10;99.90;;;;;;5000518;28;20032;-91
2023/07/04 09:22:24;;;;;;;13.52;3.22;;;18.20;99.90;;;;;;4983321;28;20026;-89
2023/07/04 09:24:49;;;;;;;9.88;2.50;;;18.20;99.90;;;;;;4970583;28;20116;-88
2023/07/04 09:27:16;;;;;;;13.23;2.90;;;18.30;99.90;;;;;;5007456;28;20451;-90
2023/07/04 09:29:42;;;;;;;18.88;3.55;;;18.30;99.90;;;;;;5000928;28;20435;-92
2023/07/04 09:32:08;;;;;;;11.20;2.80;;;18.40;99.90;;;;;;4999685;28;20057;-94
2023/07/04 09:34:34;;;;;;;14.05;2.90;;;18.40;99.90;;;;;;5000457;28;20041;-92
2023/07/04 09:37:08;;;;;;;9.52;2.83;;;18.50;99.90;;;;;;5000151;28;20034;-92
2023/07/04 09:39:48;;;;;;;14.02;3.35;;;18.50;99.90;;;;;;4999815;28;20424;-91
2023/07/04 09:42:15;;;;;;;9.10;2.70;;;18.60;99.90;;;;;;4999663;28;20600;-94
2023/07/04 09:44:41;;;;;;;11.70;3.70;;;18.60;99.90;;;;;;5000811;28;20596;-93
2023/07/04 09:47:20;;;;;;;10.88;3.05;;;18.70;99.90;;;;;;4983810;28;20045;-92
2023/07/04 09:49:46;;;;;;;13.68;3.17;;;18.80;99.90;;;;;;5000936;28;20026;-94
2023/07/04 09:52:18;;;;;;;14.00;2.70;;;18.90;99.90;;;;;;4989228;28;20022;-94
2023/07/04 09:54:44;;;;;;;15.48;3.35;;;19.00;99.90;;;;;;5006958;28;20058;-94
2023/07/04 09:57:21;;;;;;;15.52;3.42;;;19.10;99.90;;;;;;5006306;28;20116;-94
2023/07/04 09:59:47;;;;;;;8.07;2.63;;;19.10;99.90;;;;;;5001457;28;20125;-94
2023/07/04 10:02:34;;;;;;;11.85;2.15;;;19.20;99.90;;;;;;4983751;28;20030;-94
2023/07/04 10:05:00;;;;;;;12.88;2.65;;;19.20;99.90;;;;;;5000609;28;20022;-93
2023/07/04 10:07:27;;;;;;;12.40;3.40;;;19.30;99.90;;;;;;5000892;28;20469;-94
2023/07/04 10:10:02;;;;;;;10.80;2.75;;;19.30;99.90;;;;;;4985935;28;20116;-93
2023/07/04 10:12:31;;;;;;;14.70;3.10;;;19.30;99.90;;;;;;5001422;28;20384;-92
2023/07/04 10:14:59;;;;;;;10.50;2.58;;;19.20;99.90;;;;;;5000108;28;20026;-93
2023/07/04 10:17:28;;;;;;;12.40;2.88;;;19.30;99.90;;;;;;5000609;28;20101;-92
2023/07/04 10:20:05;;;;;;;11.35;2.80;;;19.30;99.90;;;;;;4999063;28;20523;-93
2023/07/04 10:22:52;;;;;;;9.10;2.80;;;19.30;99.00;;;;;;5003044;28;20021;-91
2023/07/04 10:25:22;;;;;;;12.63;3.17;;;19.30;99.90;;;;;;4999335;28;20034;-94
2023/07/04 10:27:55;;;;;;;10.87;3.90;;;19.30;99.00;;;;;;4998793;28;20030;-94
2023/07/04 10:30:29;;;;;;;10.05;2.75;;;19.30;99.70;;;;;;4982604;28;20033;-92
2023/07/04 10:33:03;;;;;;;9.68;2.20;;;19.40;99.80;;;;;;4997901;28;20029;-93
2023/07/04 10:36:16;;;;;;;7.35;2.10;;;19.40;99.90;;;;;;4997395;28;20010;-91
2023/07/04 10:38:46;;;;;;;11.15;2.95;;;19.40;99.00;;;;;;4983858;28;20113;-93
2023/07/04 10:41:18;;;;;;;9.20;2.25;;;19.50;99.50;;;;;;4978398;28;20073;-92
2023/07/04 10:43:49;;;;;;;9.82;2.33;;;19.50;98.00;;;;;;4979520;28;20034;-92
2023/07/04 10:46:22;;;;;;;8.07;2.88;;;19.50;97.20;;;;;;4979212;28;20026;-93
2023/07/04 10:48:53;;;;;;;10.18;2.40;;;19.60;98.10;;;;;;4978714;28;20366;-91
2023/07/04 10:51:25;;;;;;;10.82;2.47;;;19.60;97.80;;;;;;4980066;28;20022;-93
2023/07/04 10:53:51;;;;;;;10.15;2.67;;;19.70;97.10;;;;;;4981932;28;20028;-91
2023/07/04 10:56:24;;;;;;;9.82;2.67;;;19.70;96.80;;;;;;4970200;28;20058;-92
2023/07/04 10:58:56;;;;;;;14.73;2.38;;;19.70;96.40;;;;;;4990634;28;20085;-93
2023/07/04 11:01:41;;;;;;;9.82;2.25;;;19.70;96.50;;;;;;5002617;28;20121;-94
2023/07/04 11:04:33;;;;;;;13.73;2.65;;;19.80;95.20;;;;;;4984417;28;20026;-94
2023/07/04 11:07:19;;;;;;;10.98;2.72;;;19.80;96.10;;;;;;4999401;28;20060;-94
2023/07/04 11:09:47;;;;;;;11.45;2.83;;;19.90;95.60;;;;;;4998605;28;20546;-93
2023/07/04 11:12:17;;;;;;;13.45;2.60;;;19.90;95.90;;;;;;4982407;28;20026;-94
2023/07/04 11:14:46;;;;;;;8.38;2.53;;;20.00;96.30;;;;;;4998962;28;20477;-92
2023/07/04 11:17:19;;;;;;;12.50;2.72;;;20.00;96.00;;;;;;5000799;28;20040;-95
2023/07/04 11:20:04;;;;;;;14.43;2.50;;;20.10;94.60;;;;;;5002197;28;20049;-93
2023/07/04 11:22:46;;;;;;;10.30;2.33;;;20.10;93.50;;;;;;5002884;28;20032;-94
2023/07/04 11:25:42;;;;;;;9.52;2.28;;;20.10;95.20;;;;;;5000547;28;20018;-91
2023/07/04 11:28:36;;;;;;;9.95;2.40;;;20.20;93.80;;;;;;4998233;28;20032;-91
2023/07/04 11:31:13;;;;;;;6.35;1.95;;;20.30;93.50;;;;;;4999326;28;20018;-92
2023/07/04 11:33:53;;;;;;;7.22;2.10;;;20.40;94.10;;;;;;4998916;28;20461;-90
2023/07/04 11:36:32;;;;;;;11.38;2.88;;;20.50;92.60;;;;;;4997646;28;20036;-93
2023/07/04 11:39:00;;;;;;;9.65;2.42;;;20.60;91.90;;;;;;4997838;28;20508;-91
2023/07/04 11:41:37;;;;;;;9.75;2.45;;;20.60;92.60;;;;;;4996757;28;20034;-91
2023/07/04 11:44:29;;;;;;;7.47;2.30;;;20.60;92.20;;;;;;4998472;28;20034;-91
2023/07/04 11:47:05;;;;;;;6.68;2.45;;;20.60;92.00;;;;;;4982049;28;20026;-91
2023/07/04 11:49:33;;;;;;;7.22;2.25;;;20.50;91.80;;;;;;4989824;28;20039;-90
2023/07/04 11:52:26;;;;;;;9.35;2.53;;;20.50;92.00;;;;;;4999389;28;20049;-89
2023/07/04 11:55:05;;;;;;;7.70;2.00;;;20.40;92.10;;;;;;5005327;28;20038;-91
2023/07/04 11:57:59;;;;;;;8.55;2.10;;;20.40;90.90;;;;;;4984564;28;20022;-91
2023/07/04 12:00:39;;;;;;;8.10;2.22;;;20.30;91.20;;;;;;4994237;28;20037;-92
2023/07/04 12:03:20;;;;;;;9.25;2.63;;;20.30;91.90;;;;;;4999724;28;20041;-91
2023/07/04 12:05:57;;;;;;;8.30;2.47;;;20.40;92.60;;;;;;4997177;28;20032;-92
2023/07/04 12:08:26;;;;;;;7.05;2.03;;;20.40;91.70;;;;;;4991511;28;20473;-92
2023/07/04 12:10:56;;;;;;;12.98;2.60;;;20.50;92.60;;;;;;5000753;28;20025;-92
2023/07/04 12:13:24;;;;;;;9.77;2.67;;;20.50;92.20;;;;;;5000587;28;20112;-90
2023/07/04 12:15:50;;;;;;;9.98;2.22;;;20.60;92.60;;;;;;4985481;28;20029;-90
2023/07/04 12:18:24;;;;;;;7.05;2.20;;;20.70;92.40;;;;;;4965269;28;20049;-89
2023/07/04 12:20:50;;;;;;;10.15;2.92;;;20.80;92.10;;;;;;4982186;28;20052;-89
2023/07/04 12:23:17;;;;;;;10.82;2.60;;;20.90;92.20;;;;;;4966450;28;20033;-90
2023/07/04 12:25:46;;;;;;;8.88;2.28;;;21.00;92.10;;;;;;4965078;28;20384;-91
2023/07/04 12:28:14;;;;;;;8.18;2.20;;;21.10;92.70;;;;;;4981418;28;20025;-91
2023/07/04 12:30:41;;;;;;;13.40;2.55;;;21.10;91.20;;;;;;4982504;28;20018;-91
2023/07/04 12:33:25;;;;;;;10.00;2.67;;;21.10;91.60;;;;;;4965624;28;20041;-93
2023/07/04 12:35:58;;;;;;;11.57;2.30;;;21.20;91.40;;;;;;4981612;28;20031;-93
2023/07/04 12:38:27;;;;;;;7.32;1.90;;;21.10;91.60;;;;;;4967312;28;20030;-94
2023/07/04 12:40:54;;;;;;;9.73;2.80;;;21.10;91.20;;;;;;4983075;28;20022;-94
2023/07/04 12:43:21;;;;;;;7.22;2.40;;;21.10;90.60;;;;;;4968922;28;20050;-92
2023/07/04 12:45:47;;;;;;;9.65;2.38;;;21.10;91.60;;;;;;5000201;28;19999;-91
2023/07/04 12:48:14;;;;;;;9.23;2.42;;;21.10;92.00;;;;;;4980618;28;20034;-90
2023/07/04 12:50:55;;;;;;;6.93;2.22;;;21.20;91.80;;;;;;4964888;28;20370;-91